Time;durP1;ratioP1;P1;durP2;ratioP2;P2;SDS_P1;SDS_P2;PMS_P1;PMS_P2;Temp;Humidity;BMP_temperature;BMP_pressure;BME280_temperature;BME280_humidity;BME280_pressure;Samples;Min_cycle;Max_cycle;Signal;HPM_P1;HPM_P2
2023/01/31 00:02:09;;;;;;;25.80;17.00;;;;;;;-1.51;93.56;98531.21;105967;1253;59617;-72
2023/01/31 00:04:37;;;;;;;27.00;17.70;;;;;;;-1.52;93.47;98532.50;105993;1253;59756;-78
2023/01/31 00:07:06;;;;;;;25.80;16.80;;;;;;;-1.58;93.69;98535.09;106815;1252;73869;-76
2023/01/31 00:09:34;;;;;;;26.50;17.40;;;;;;;-1.52;93.79;98536.19;106071;1257;69738;-71
2023/01/31 00:12:03;;;;;;;27.50;18.10;;;;;;;-1.45;93.50;98537.32;105852;1257;73864;-72
2023/01/31 00:14:32;;;;;;;29.30;17.40;;;;;;;-1.48;93.47;98531.64;106066;1253;59779;-72
2023/01/31 00:17:00;;;;;;;28.00;17.60;;;;;;;-1.51;93.56;98531.38;106018;1252;61362;-72
2023/01/31 00:19:28;;;;;;;26.30;17.70;;;;;;;-1.46;93.42;98530.46;106236;1252;72672;-72
2023/01/31 00:21:56;;;;;;;31.70;17.00;;;;;;;-1.45;93.44;98535.61;106215;1253;69746;-74
2023/01/31 00:24:24;;;;;;;25.10;16.70;;;;;;;-1.50;93.63;98534.96;106438;1253;72726;-75
2023/01/31 00:26:55;;;;;;;26.60;16.70;;;;;;;-1.46;93.50;98527.48;106741;1253;62382;-74
2023/01/31 00:29:25;;;;;;;25.40;17.20;;;;;;;-1.41;93.36;98524.52;106758;1253;61072;-76
2023/01/31 00:31:54;;;;;;;27.50;16.80;;;;;;;-1.45;93.58;98524.65;106671;1257;71289;-76
2023/01/31 00:34:22;;;;;;;25.60;15.40;;;;;;;-1.46;93.78;98524.20;106707;1253;69306;-75
2023/01/31 00:36:50;;;;;;;24.10;16.90;;;;;;;-1.36;93.38;98519.61;106580;1256;71457;-77
2023/01/31 00:39:18;;;;;;;25.80;16.90;;;;;;;-1.36;93.35;98520.54;107628;1253;60688;-80
2023/01/31 00:41:46;;;;;;;23.70;15.70;;;;;;;-1.42;93.71;98527.91;108600;1252;59447;-79
2023/01/31 00:44:14;;;;;;;24.50;16.40;;;;;;;-1.35;93.61;98527.70;106945;1253;72922;-71
2023/01/31 00:46:43;;;;;;;25.50;16.80;;;;;;;-1.32;93.57;98522.44;105941;1253;69465;-71
2023/01/31 00:49:11;;;;;;;27.70;16.90;;;;;;;-1.36;93.55;98524.31;106944;1257;70910;-69
2023/01/31 00:51:39;;;;;;;24.80;16.30;;;;;;;-1.33;93.65;98527.53;106900;1253;60934;-66
2023/01/31 00:54:07;;;;;;;26.00;16.40;;;;;;;-1.29;93.40;98523.40;107490;1253;61376;-70
2023/01/31 00:56:37;;;;;;;24.00;16.90;;;;;;;-1.36;93.64;98526.77;108173;1256;74066;-67
2023/01/31 00:59:07;;;;;;;23.90;15.80;;;;;;;-1.40;93.67;98531.88;108607;1253;70697;-69
2023/01/31 01:01:37;;;;;;;28.80;17.50;;;;;;;-1.30;93.79;98534.23;106837;1253;72428;-72
2023/01/31 01:04:05;;;;;;;22.30;15.60;;;;;;;-1.30;93.55;98538.43;107593;1253;60509;-72
2023/01/31 01:06:34;;;;;;;24.50;15.80;;;;;;;-1.36;93.80;98534.73;107269;1253;60378;-70
2023/01/31 01:09:04;;;;;;;22.90;15.30;;;;;;;-1.31;93.65;98531.71;107249;1260;74721;-66
2023/01/31 01:11:33;;;;;;;23.80;17.80;;;;;;;-1.26;93.55;98523.65;107361;1254;69671;-67
2023/01/31 01:14:02;;;;;;;24.20;15.70;;;;;;;-1.31;93.68;98527.06;108111;1253;73622;-69
2023/01/31 01:16:36;;;;;;;23.20;15.40;;;;;;;-1.32;93.70;98528.48;107857;1253;60889;-70
2023/01/31 01:19:09;;;;;;;22.30;15.70;;;;;;;-1.21;93.44;98524.52;108217;1253;60377;-71
2023/01/31 01:21:39;;;;;;;24.10;16.80;;;;;;;-1.21;93.41;98528.14;108522;1253;72897;-72
2023/01/31 01:24:14;;;;;;;23.20;15.50;;;;;;;-1.27;93.55;98524.81;108653;1252;69004;-72
2023/01/31 01:26:43;;;;;;;24.40;15.80;;;;;;;-1.24;93.55;98528.36;108215;1252;74005;-70
2023/01/31 01:29:12;;;;;;;25.60;17.30;;;;;;;-1.15;93.16;98526.30;108345;1253;59874;-69
2023/01/31 01:31:42;;;;;;;25.30;17.20;;;;;;;-1.18;93.18;98529.30;108883;1253;59176;-69
2023/01/31 01:34:13;;;;;;;23.10;16.20;;;;;;;-1.21;93.32;98525.35;107800;1256;72205;-71
2023/01/31 01:36:41;;;;;;;24.60;16.80;;;;;;;-1.13;93.18;98525.93;105984;1253;71536;-71
2023/01/31 01:39:10;;;;;;;23.80;16.50;;;;;;;-1.12;93.27;98528.80;105693;1255;72365;-70
2023/01/31 01:41:39;;;;;;;24.20;15.20;;;;;;;-1.17;93.39;98530.42;105683;1253;60540;-70
2023/01/31 01:44:41;;;;;;;23.10;15.30;;;;;;;-1.22;93.62;98528.90;105673;1258;60544;-70
2023/01/31 01:47:12;;;;;;;22.40;15.30;;;;;;;-1.13;93.18;98533.23;105486;1260;73144;-71
2023/01/31 01:49:40;;;;;;;23.30;16.40;;;;;;;-1.11;93.00;98528.55;105669;1254;68812;-70
2023/01/31 01:52:11;;;;;;;20.70;15.50;;;;;;;-1.16;93.11;98528.98;105559;1252;73143;-71
2023/01/31 01:54:45;;;;;;;23.60;15.60;;;;;;;-1.25;93.38;98533.84;105537;1253;61884;-71
2023/01/31 01:57:15;;;;;;;25.70;17.40;;;;;;;-1.20;93.27;98532.79;105492;1258;61329;-69
2023/01/31 01:59:51;;;;;;;25.30;16.40;;;;;;;-1.19;93.19;98535.58;105633;1257;75061;-70
2023/01/31 02:02:19;;;;;;;25.00;16.20;;;;;;;-1.26;93.52;98535.33;105811;1257;71397;-68
2023/01/31 02:04:49;;;;;;;23.70;16.90;;;;;;;-1.24;93.49;98535.14;105626;1253;70830;-68
2023/01/31 02:07:17;;;;;;;24.20;15.70;;;;;;;-1.23;93.66;98534.52;105758;1253;60521;-69
2023/01/31 02:10:05;;;;;;;25.50;16.90;;;;;;;-1.30;93.92;98534.42;105595;1253;60704;-69
2023/01/31 02:12:34;;;;;;;24.70;16.30;;;;;;;-1.27;94.15;98535.75;105635;1253;75102;-69
2023/01/31 02:15:03;;;;;;;24.50;17.20;;;;;;;-1.22;94.08;98534.69;105613;1254;70583;-71
2023/01/31 02:17:31;;;;;;;29.90;16.90;;;;;;;-1.28;94.16;98535.29;105396;1253;73841;-73
2023/01/31 02:20:37;;;;;;;25.90;15.80;;;;;;;-1.29;94.35;98534.40;105969;1253;61148;-71
2023/01/31 02:23:31;;;;;;;21.40;15.30;;;;;;;-1.21;94.03;98528.34;105591;1253;60375;-71
2023/01/31 02:26:20;;;;;;;;;;;;;;;-1.22;94.10;98533.20;105588;1253;75160;-69
2023/01/31 02:29:04;;;;;;;27.20;16.80;;;;;;;-1.30;94.56;98538.08;105710;1257;68634;-70
2023/01/31 02:31:59;;;;;;;25.50;17.20;;;;;;;-1.31;94.55;98541.96;105616;1253;72675;-72
2023/01/31 02:34:40;;;;;;;26.00;18.50;;;;;;;-1.24;94.50;98544.35;105489;1258;60467;-71
2023/01/31 02:37:27;;;;;;;28.20;18.00;;;;;;;-1.28;94.61;98548.37;105738;1253;61164;-73
2023/01/31 02:40:22;;;;;;;26.80;17.00;;;;;;;-1.30;94.86;98544.50;105826;1253;72526;-74
2023/01/31 02:43:12;;;;;;;22.40;16.20;;;;;;;-1.23;94.55;98543.40;106078;1256;71326;-73
2023/01/31 02:46:03;;;;;;;28.30;18.60;;;;;;;-1.20;94.52;98541.12;105583;1253;72930;-66
2023/01/31 02:48:57;;;;;;;29.90;17.50;;;;;;;-1.28;94.64;98545.21;105718;1253;60470;-67
2023/01/31 02:51:28;;;;;;;26.00;15.90;;;;;;;-1.30;94.85;98545.59;105669;1257;60703;-68
2023/01/31 02:54:04;;;;;;;24.00;16.70;;;;;;;-1.22;94.53;98541.95;105565;1253;73864;-67
2023/01/31 02:56:33;;;;;;;25.00;16.80;;;;;;;-1.24;94.77;98550.27;105576;1253;69641;-66
2023/01/31 02:59:20;;;;;;;25.10;17.50;;;;;;;-1.30;94.95;98550.10;105750;1256;73600;-66
2023/01/31 03:01:55;;;;;;;28.00;17.20;;;;;;;-1.23;94.83;98553.14;105747;1253;62187;-69
2023/01/31 03:04:23;;;;;;;25.20;16.30;;;;;;;-1.21;94.82;98552.09;105664;1252;60534;-67
2023/01/31 03:06:58;;;;;;;25.90;16.90;;;;;;;-1.27;94.92;98560.64;105804;1255;74902;-70
2023/01/31 03:09:29;;;;;;;23.10;16.40;;;;;;;-1.22;94.86;98561.08;105893;1253;70986;-68
2023/01/31 03:12:23;;;;;;;27.40;17.40;;;;;;;-1.16;94.28;98561.81;105548;1253;72080;-70
2023/01/31 03:15:02;;;;;;;24.90;15.60;;;;;;;-1.23;94.56;98555.91;105468;1253;60673;-70
2023/01/31 03:17:59;;;;;;;23.50;15.70;;;;;;;-1.24;94.61;98554.95;105458;1261;61360;-70
2023/01/31 03:20:35;;;;;;;24.60;16.60;;;;;;;-1.18;94.35;98554.64;105655;1256;75113;-67
2023/01/31 03:23:07;;;;;;;22.50;16.40;;;;;;;-1.22;94.49;98548.38;105353;1261;70497;-68
2023/01/31 03:25:36;;;;;;;26.00;16.90;;;;;;;-1.27;94.70;98554.19;105534;1254;72876;-66
2023/01/31 03:28:09;;;;;;;21.30;15.20;;;;;;;-1.21;94.58;98551.97;105636;1253;60514;-68
2023/01/31 03:30:42;;;;;;;22.80;16.20;;;;;;;-1.15;94.26;98550.48;105702;1252;60392;-68
2023/01/31 03:33:18;;;;;;;26.70;16.30;;;;;;;-1.20;94.46;98554.32;105636;1259;74757;-67
2023/01/31 03:35:50;;;;;;;22.70;15.40;;;;;;;-1.26;94.57;98560.34;105743;1257;71206;-67
2023/01/31 03:38:31;;;;;;;22.40;15.90;;;;;;;-1.20;94.45;98558.27;105679;1253;72485;-67
2023/01/31 03:41:12;;;;;;;23.40;16.80;;;;;;;-1.16;94.39;98556.23;105677;1253;60960;-69
2023/01/31 03:44:13;;;;;;;22.70;15.40;;;;;;;-1.19;94.61;98552.84;105630;1257;60540;-71
2023/01/31 03:46:54;;;;;;;24.10;17.00;;;;;;;-1.21;94.70;98556.27;106148;1253;72725;-80
2023/01/31 03:49:23;;;;;;;21.30;16.20;;;;;;;-1.10;94.49;98559.21;105759;1253;69065;-81
2023/01/31 03:51:53;;;;;;;25.80;18.50;;;;;;;-1.10;94.41;98557.02;106033;1258;72275;-79
2023/01/31 03:54:28;;;;;;;23.80;16.80;;;;;;;-1.16;94.64;98554.21;105854;1257;60440;-82
2023/01/31 03:56:59;;;;;;;25.40;15.90;;;;;;;-1.17;94.75;98561.00;105869;1259;61570;-79
2023/01/31 03:59:31;;;;;;;21.10;15.70;;;;;;;-1.07;94.47;98561.81;107339;1253;74073;-78
2023/01/31 04:02:00;;;;;;;23.90;16.30;;;;;;;-1.00;94.19;98560.98;107779;1257;69140;-78
2023/01/31 04:04:31;;;;;;;24.10;16.80;;;;;;;-1.02;94.26;98563.59;107749;1254;73654;-80
2023/01/31 04:07:00;;;;;;;25.10;16.90;;;;;;;-1.02;94.53;98566.20;106546;1258;60440;-80
2023/01/31 04:09:28;;;;;;;22.90;16.20;;;;;;;-1.00;94.53;98569.73;105770;1260;61222;-78
2023/01/31 04:12:00;;;;;;;25.80;16.80;;;;;;;-0.88;93.99;98572.59;105760;1253;73884;-73
2023/01/31 04:14:29;;;;;;;22.70;16.30;;;;;;;-0.85;93.75;98574.58;105876;1253;69816;-71
2023/01/31 04:16:57;;;;;;;24.20;16.90;;;;;;;-0.90;93.69;98571.55;105936;1253;73340;-70
2023/01/31 04:19:25;;;;;;;25.70;17.70;;;;;;;-0.95;93.77;98572.16;105508;1258;60490;-73
2023/01/31 04:21:54;;;;;;;25.50;17.20;;;;;;;-0.89;93.60;98574.93;105849;1253;61195;-68
2023/01/31 04:24:23;;;;;;;23.90;16.60;;;;;;;-0.82;93.30;98572.98;105556;1258;73498;-69
2023/01/31 04:26:51;;;;;;;26.20;17.80;;;;;;;-0.83;93.20;98575.33;105665;1257;70362;-68
2023/01/31 04:29:19;;;;;;;26.90;19.10;;;;;;;-0.90;93.33;98579.56;105440;1254;73561;-68
2023/01/31 04:31:48;;;;;;;25.30;17.70;;;;;;;-0.96;93.39;98578.30;105619;1259;60527;-68
2023/01/31 04:34:16;;;;;;;23.80;16.80;;;;;;;-0.89;93.13;98577.52;105713;1258;60541;-70
2023/01/31 04:36:44;;;;;;;26.20;17.70;;;;;;;-0.82;92.95;98580.48;105615;1257;73157;-70
2023/01/31 04:39:13;;;;;;;22.30;15.80;;;;;;;-0.86;92.98;98587.75;105522;1253;69676;-71
2023/01/31 04:41:43;;;;;;;24.80;17.10;;;;;;;-0.92;93.15;98586.80;105414;1253;71170;-71
2023/01/31 04:44:11;;;;;;;27.20;18.40;;;;;;;-0.92;93.10;98586.15;105439;1257;61190;-72
2023/01/31 04:46:39;;;;;;;27.20;17.70;;;;;;;-0.81;92.90;98590.80;105590;1253;60524;-72
2023/01/31 04:49:08;;;;;;;28.80;18.80;;;;;;;-0.79;93.03;98592.40;105770;1257;72715;-76
2023/01/31 04:51:37;;;;;;;27.40;17.80;;;;;;;-0.83;93.27;98588.86;105838;1253;71567;-72
2023/01/31 04:54:05;;;;;;;24.80;17.00;;;;;;;-0.87;93.18;98591.98;105492;1258;70785;-71
2023/01/31 04:56:34;;;;;;;23.70;17.30;;;;;;;-0.81;92.92;98592.52;105836;1258;61572;-71
2023/01/31 04:59:02;;;;;;;24.10;17.80;;;;;;;-0.74;92.82;98592.68;106008;1253;61195;-70
2023/01/31 05:01:33;;;;;;;25.30;18.20;;;;;;;-0.76;92.87;98595.30;105907;1253;74675;-72
2023/01/31 05:04:01;;;;;;;25.40;18.60;;;;;;;-0.81;92.93;98597.76;105811;1258;69234;-70
2023/01/31 05:06:29;;;;;;;27.90;18.60;;;;;;;-0.86;92.92;98597.08;105679;1253;73596;-71
2023/01/31 05:09:00;;;;;;;24.20;17.00;;;;;;;-0.79;92.65;98600.59;105885;1253;62102;-69
2023/01/31 05:11:28;;;;;;;22.10;16.00;;;;;;;-0.73;92.44;98600.30;105545;1253;60809;-70
2023/01/31 05:13:58;;;;;;;25.70;18.90;;;;;;;-0.78;92.50;98599.29;105422;1261;72825;-74
2023/01/31 05:16:26;;;;;;;25.20;17.80;;;;;;;-0.86;92.74;98600.45;105927;1256;70269;-73
2023/01/31 05:18:54;;;;;;;26.70;18.50;;;;;;;-0.94;92.93;98602.41;105892;1253;71500;-68
2023/01/31 05:21:22;;;;;;;26.00;17.30;;;;;;;-0.85;92.85;98601.93;105724;1253;62013;-73
2023/01/31 05:23:50;;;;;;;24.50;18.30;;;;;;;-0.81;92.78;98603.17;106001;1253;60300;-70
2023/01/31 05:26:18;;;;;;;28.60;18.20;;;;;;;-0.86;92.92;98609.27;105696;1253;73954;-71
2023/01/31 05:28:46;;;;;;;26.00;17.70;;;;;;;-0.92;93.22;98615.12;105931;1253;71831;-71
2023/01/31 05:31:15;;;;;;;26.50;17.40;;;;;;;-0.94;93.33;98618.07;105720;1259;74187;-73
2023/01/31 05:33:43;;;;;;;29.20;18.80;;;;;;;-0.83;93.15;98625.43;105669;1253;60423;-73
2023/01/31 05:36:13;;;;;;;24.10;17.00;;;;;;;-0.74;92.78;98626.59;105815;1253;60522;-71
2023/01/31 05:38:42;;;;;;;26.30;18.80;;;;;;;-0.74;92.80;98624.67;105681;1255;75084;-69
2023/01/31 05:41:10;;;;;;;27.80;18.80;;;;;;;-0.79;92.80;98627.52;105898;1253;71577;-69
2023/01/31 05:43:38;;;;;;;29.30;17.70;;;;;;;-0.83;92.88;98632.68;105754;1252;73835;-68
2023/01/31 05:46:07;;;;;;;24.60;17.70;;;;;;;-0.76;92.64;98631.73;105621;1253;62401;-69
2023/01/31 05:48:35;;;;;;;25.80;17.50;;;;;;;-0.67;92.40;98628.44;105608;1253;60626;-70
2023/01/31 05:51:04;;;;;;;28.30;19.20;;;;;;;-0.70;92.39;98632.30;106001;1259;72856;-70
2023/01/31 05:53:32;;;;;;;30.80;20.30;;;;;;;-0.74;92.54;98641.75;105891;1253;70583;-71
2023/01/31 05:56:00;;;;;;;30.40;19.70;;;;;;;-0.77;92.78;98644.59;106065;1252;72099;-68
2023/01/31 05:58:28;;;;;;;30.00;18.20;;;;;;;-0.70;92.44;98649.17;105745;1253;60702;-72
2023/01/31 06:00:57;;;;;;;28.70;19.50;;;;;;;-0.61;92.11;98656.80;105614;1253;61244;-68
2023/01/31 06:03:25;;;;;;;32.20;20.80;;;;;;;-0.60;92.32;98656.91;105635;1259;73695;-67
2023/01/31 06:05:53;;;;;;;29.90;19.50;;;;;;;-0.61;92.67;98658.36;105872;1253;70782;-69
2023/01/31 06:08:24;;;;;;;28.70;19.60;;;;;;;-0.58;92.70;98662.86;105595;1253;74553;-68
2023/01/31 06:10:52;;;;;;;27.20;18.90;;;;;;;-0.57;92.46;98660.19;105894;1252;62200;-68
2023/01/31 06:13:20;;;;;;;27.90;19.90;;;;;;;-0.49;92.02;98659.16;106002;1253;60370;-67
2023/01/31 06:15:48;;;;;;;28.80;19.80;;;;;;;-0.44;91.59;98666.03;105722;1255;73983;-68
2023/01/31 06:18:17;;;;;;;29.50;20.40;;;;;;;-0.50;91.45;98668.48;105710;1256;70104;-67
2023/01/31 06:20:47;;;;;;;30.80;20.30;;;;;;;-0.58;91.81;98669.48;105660;1258;72808;-65
2023/01/31 06:23:16;;;;;;;35.90;20.60;;;;;;;-0.53;91.86;98668.88;105706;1257;61163;-67
2023/01/31 06:25:48;;;;;;;29.50;21.00;;;;;;;-0.44;91.57;98668.09;105660;1253;60429;-67
2023/01/31 06:28:16;;;;;;;32.10;21.00;;;;;;;-0.45;91.47;98669.27;105703;1253;74604;-71
2023/01/31 06:30:44;;;;;;;27.10;19.30;;;;;;;-0.49;91.59;98674.01;105753;1253;69544;-69
2023/01/31 06:33:13;;;;;;;30.40;21.90;;;;;;;-0.42;91.47;98669.20;105740;1253;73674;-71
2023/01/31 06:35:42;;;;;;;30.60;21.30;;;;;;;-0.37;91.57;98663.23;105974;1253;60579;-69
2023/01/31 06:38:15;;;;;;;35.70;23.40;;;;;;;-0.38;91.52;98667.34;105905;1253;60534;-69
2023/01/31 06:40:43;;;;;;;34.60;21.90;;;;;;;-0.42;91.72;98669.19;106118;1253;75048;-68
2023/01/31 06:43:12;;;;;;;28.60;20.50;;;;;;;-0.35;91.30;98673.00;106442;1253;71626;-69
2023/01/31 06:45:42;;;;;;;30.10;21.30;;;;;;;-0.25;91.28;98675.50;107012;1253;71701;-67
2023/01/31 06:48:11;;;;;;;32.00;23.00;;;;;;;-0.23;91.30;98681.61;106877;1254;60785;-68
2023/01/31 06:50:40;;;;;;;29.50;20.10;;;;;;;-0.25;91.37;98685.59;106606;1253;61228;-68
2023/01/31 06:53:08;;;;;;;32.10;21.00;;;;;;;-0.26;91.01;98688.59;106531;1256;73804;-68
2023/01/31 06:55:37;;;;;;;30.80;20.50;;;;;;;-0.17;90.93;98693.14;107108;1253;69694;-69
2023/01/31 06:58:05;;;;;;;29.80;20.40;;;;;;;-0.17;90.83;98690.70;108317;1253;72565;-67
2023/01/31 07:00:34;;;;;;;30.60;20.90;;;;;;;-0.22;91.08;98689.53;108385;1253;59593;-70
2023/01/31 07:03:03;;;;;;;31.70;20.50;;;;;;;-0.21;91.02;98685.94;107896;1253;61318;-67
2023/01/31 07:05:31;;;;;;;28.50;20.70;;;;;;;-0.10;90.76;98687.67;107970;1257;73591;-69
2023/01/31 07:08:05;;;;;;;;;;;;;;;-0.09;90.55;98691.05;107613;1256;70141;-71
2023/01/31 07:10:33;;;;;;;28.70;18.50;;;;;;;-0.15;90.69;98692.23;108984;1256;73711;-70
2023/01/31 07:13:01;;;;;;;32.90;21.30;;;;;;;-0.19;90.88;98694.31;108644;1253;61086;-73
2023/01/31 07:15:31;;;;;;;31.10;22.10;;;;;;;-0.09;90.72;98695.55;109078;1253;59357;-73
2023/01/31 07:17:59;;;;;;;31.40;21.70;;;;;;;0.00;90.55;98705.63;108984;1253;73771;-70
2023/01/31 07:20:28;;;;;;;30.50;22.40;;;;;;;-0.01;90.61;98707.64;107482;1257;70462;-70
2023/01/31 07:22:57;;;;;;;30.90;21.40;;;;;;;-0.02;90.89;98709.66;106109;1258;73693;-69
2023/01/31 07:25:26;;;;;;;29.80;21.40;;;;;;;-0.03;90.84;98716.17;105825;1254;60508;-71
2023/01/31 07:27:54;;;;;;;30.10;20.90;;;;;;;0.06;90.52;98714.60;105888;1253;60364;-70
2023/01/31 07:30:22;;;;;;;30.30;20.70;;;;;;;0.14;90.23;98710.61;105745;1253;73916;-70
2023/01/31 07:32:51;;;;;;;32.80;22.70;;;;;;;0.11;90.18;98708.09;106044;1253;71137;-69
2023/01/31 07:35:19;;;;;;;30.70;22.50;;;;;;;0.06;90.22;98706.06;106240;1253;72044;-71
2023/01/31 07:37:50;;;;;;;32.60;22.10;;;;;;;0.05;90.46;98710.60;106196;1253;60427;-70
2023/01/31 07:40:19;;;;;;;29.30;19.20;;;;;;;0.16;90.12;98710.40;105859;1256;59270;-70
2023/01/31 07:42:48;;;;;;;28.90;21.00;;;;;;;0.27;89.77;98712.66;105892;1259;75008;-72
2023/01/31 07:45:17;;;;;;;29.70;20.60;;;;;;;0.25;89.74;98719.77;105947;1257;69567;-71
2023/01/31 07:47:51;;;;;;;31.70;22.00;;;;;;;0.22;89.81;98719.73;105947;1255;73608;-71
2023/01/31 07:50:19;;;;;;;28.30;20.40;;;;;;;0.20;90.01;98724.39;105931;1253;62164;-70
2023/01/31 07:52:48;;;;;;;31.40;21.90;;;;;;;0.31;89.69;98722.74;105866;1253;60290;-72
2023/01/31 07:55:17;;;;;;;31.00;22.20;;;;;;;0.44;89.55;98723.06;105618;1254;74579;-71
2023/01/31 07:57:46;;;;;;;31.50;21.80;;;;;;;0.48;89.35;98727.92;105843;1253;70540;-70
2023/01/31 08:05:48;;;;;;;37.40;26.70;;;;;;;0.75;88.88;98726.39;105899;1253;60445;-71
2023/01/31 08:08:17;;;;;;;42.00;30.50;;;;;;;0.85;88.11;98731.98;105931;1259;73514;-70
2023/01/31 08:10:46;;;;;;;39.90;28.60;;;;;;;0.86;88.25;98732.30;105836;1253;71491;-69
2023/01/31 08:13:14;;;;;;;44.10;29.30;;;;;;;0.87;88.29;98738.59;105749;1257;73628;-70
2023/01/31 08:15:43;;;;;;;37.80;27.50;;;;;;;0.89;88.11;98737.36;105791;1258;60466;-70
2023/01/31 08:18:11;;;;;;;33.70;24.40;;;;;;;1.00;87.90;98743.79;105653;1252;60398;-70
2023/01/31 08:20:40;;;;;;;37.30;24.50;;;;;;;1.09;87.51;98746.35;105491;1259;73632;-70
2023/01/31 08:23:08;;;;;;;33.50;25.20;;;;;;;1.08;87.39;98754.42;105962;1259;69451;-69
2023/01/31 08:25:36;;;;;;;32.70;23.60;;;;;;;1.02;87.39;98758.61;105563;1254;72641;-68
2023/01/31 08:28:05;;;;;;;36.00;24.80;;;;;;;0.98;87.50;98757.03;105725;1259;60610;-69
2023/01/31 08:30:38;;;;;;;30.00;21.00;;;;;;;1.07;87.22;98759.27;105746;1259;60514;-70
2023/01/31 08:33:07;;;;;;;33.40;24.10;;;;;;;1.13;86.90;98759.95;105511;1253;74739;-70
2023/01/31 08:35:35;;;;;;;33.30;24.90;;;;;;;1.10;87.23;98760.55;105825;1255;71220;-71
2023/01/31 08:38:03;;;;;;;33.50;24.20;;;;;;;1.08;87.33;98766.80;105822;1257;73382;-72
2023/01/31 08:40:47;;;;;;;37.40;23.20;;;;;;;1.12;87.34;98771.86;105857;1253;60496;-70
2023/01/31 08:43:15;;;;;;;33.70;22.90;;;;;;;1.18;86.86;98773.10;105834;1259;61214;-75
2023/01/31 08:45:44;;;;;;;32.90;23.40;;;;;;;1.26;86.55;98771.23;105727;1254;72933;-75
2023/01/31 08:48:13;;;;;;;36.80;25.70;;;;;;;1.26;86.57;98770.34;106010;1253;70585;-77
2023/01/31 08:50:41;;;;;;;33.20;24.40;;;;;;;1.23;86.58;98770.75;105915;1257;73756;-74
2023/01/31 08:53:09;;;;;;;34.30;23.50;;;;;;;1.21;86.62;98770.96;105824;1257;60483;-76
2023/01/31 08:56:43;;;;;;;35.60;24.20;;;;;;;1.30;86.18;98771.67;102770;1292;601218;-76
2023/01/31 08:59:12;;;;;;;32.60;24.10;;;;;;;1.24;86.18;98770.89;104737;1269;60523;-75
2023/01/31 09:01:42;;;;;;;34.50;24.00;;;;;;;1.18;86.36;98771.37;105651;1261;61072;-75
2023/01/31 09:04:11;;;;;;;31.00;23.30;;;;;;;1.23;86.38;98772.89;105668;1256;73242;-76
2023/01/31 09:06:39;;;;;;;32.40;24.10;;;;;;;1.26;86.31;98778.33;105643;1256;70265;-75
2023/01/31 09:09:10;;;;;;;36.10;25.20;;;;;;;1.21;86.55;98778.27;105590;1256;73578;-72
2023/01/31 09:11:38;;;;;;;37.10;25.70;;;;;;;1.15;86.75;98778.08;105757;1256;59625;-71
2023/01/31 09:14:07;;;;;;;31.40;23.10;;;;;;;1.12;86.65;98777.32;105689;1256;60081;-72
2023/01/31 09:16:36;;;;;;;31.70;22.60;;;;;;;1.19;86.55;98777.10;105631;1258;72423;-73
2023/01/31 09:19:05;;;;;;;32.10;22.90;;;;;;;1.24;86.80;98778.08;105631;1259;71018;-73
2023/01/31 09:21:33;;;;;;;32.40;23.40;;;;;;;1.24;86.81;98775.80;105674;1256;71562;-73
2023/01/31 09:24:02;;;;;;;34.20;23.50;;;;;;;1.20;86.78;98776.09;105714;1258;59772;-72
2023/01/31 09:26:33;;;;;;;29.90;22.10;;;;;;;1.24;86.69;98775.95;105661;1254;60806;-72
2023/01/31 09:29:01;;;;;;;31.80;23.70;;;;;;;1.34;86.53;98777.63;105802;1255;71525;-72
2023/01/31 09:31:30;;;;;;;30.50;23.60;;;;;;;1.33;86.57;98774.40;105597;1258;71467;-73
2023/01/31 09:33:59;;;;;;;38.70;27.20;;;;;;;1.30;86.41;98774.90;105694;1259;72602;-73
2023/01/31 09:36:28;;;;;;;35.50;25.10;;;;;;;1.25;86.60;98778.61;105986;1256;62398;-73
2023/01/31 09:38:57;;;;;;;33.50;24.60;;;;;;;1.36;86.67;98777.52;105932;1254;60334;-74
2023/01/31 09:41:40;;;;;;;32.90;25.40;;;;;;;1.45;86.41;98779.16;105808;1258;72149;-74
2023/01/31 09:44:17;;;;;;;;;;;;;;;1.45;86.57;98774.48;105633;1256;71308;-72
2023/01/31 09:47:00;;;;;;;34.80;24.00;;;;;;;1.46;86.51;98775.11;105684;1255;70623;-71
2023/01/31 09:49:30;;;;;;;28.30;20.60;;;;;;;1.52;86.59;98774.36;105803;1256;59821;-70
2023/01/31 09:52:00;;;;;;;33.70;21.90;;;;;;;1.71;86.08;98773.40;105678;1254;59514;-71
2023/01/31 09:54:35;;;;;;;33.60;23.90;;;;;;;1.79;85.51;98772.92;105866;1256;74105;-72
2023/01/31 09:57:27;;;;;;;33.60;23.30;;;;;;;1.80;85.14;98777.88;105794;1259;71604;-71
2023/01/31 10:00:08;;;;;;;28.40;20.90;;;;;;;1.76;84.69;98780.06;105824;1254;72919;-71
2023/01/31 10:02:39;;;;;;;28.70;20.70;;;;;;;1.88;84.47;98779.45;105536;1254;61522;-70
2023/01/31 10:05:31;;;;;;;32.70;24.10;;;;;;;1.87;83.91;98773.40;105555;1259;60889;-70
2023/01/31 10:08:08;;;;;;;35.00;23.80;;;;;;;1.77;84.41;98775.81;105702;1258;73149;-70
2023/01/31 10:10:51;;;;;;;31.10;22.50;;;;;;;1.75;84.79;98775.29;105746;1256;69913;-70
2023/01/31 10:13:23;;;;;;;28.90;21.00;;;;;;;1.81;84.52;98772.91;105789;1257;74992;-70
2023/01/31 10:15:59;;;;;;;28.50;20.20;;;;;;;1.92;84.05;98776.58;105745;1256;59680;-70
2023/01/31 10:18:30;;;;;;;27.70;22.70;;;;;;;1.91;83.53;98773.96;105655;1254;59766;-71
2023/01/31 10:21:07;;;;;;;29.50;22.50;;;;;;;1.85;84.03;98771.80;105738;1259;73749;-71
2023/01/31 10:23:40;;;;;;;32.30;20.50;;;;;;;1.81;84.14;98772.73;105690;1255;68129;-71
2023/01/31 10:26:13;;;;;;;25.90;19.70;;;;;;;1.89;84.06;98775.14;105657;1258;73868;-70
2023/01/31 10:28:58;;;;;;;29.50;20.30;;;;;;;1.96;84.22;98774.65;105753;1260;59728;-70
2023/01/31 10:32:11;;;;;;;27.10;21.10;;;;;;;1.92;83.97;98774.51;105658;1256;60337;-69
2023/01/31 10:34:55;;;;;;;34.60;23.90;;;;;;;1.83;84.03;98772.40;105542;1254;74529;-69
2023/01/31 10:37:42;;;;;;;32.60;22.70;;;;;;;1.79;84.61;98778.46;105650;1259;70049;-72
2023/01/31 10:40:22;;;;;;;33.10;23.60;;;;;;;1.91;85.03;98772.52;105752;1259;71580;-71
2023/01/31 10:42:56;;;;;;;27.30;21.00;;;;;;;1.97;85.54;98776.02;105713;1258;59622;-71
2023/01/31 10:45:30;;;;;;;34.10;23.60;;;;;;;1.95;86.15;98775.62;105611;1255;59654;-70
2023/01/31 10:48:25;;;;;;;33.10;23.60;;;;;;;1.91;86.21;98772.66;105647;1259;72081;-72
2023/01/31 10:51:15;;;;;;;27.40;20.70;;;;;;;1.92;86.32;98766.66;105894;1257;70943;-71
2023/01/31 10:54:12;;;;;;;32.90;23.70;;;;;;;2.01;86.24;98762.75;105799;1255;72980;-71
2023/01/31 10:56:44;;;;;;;31.10;23.60;;;;;;;2.01;86.42;98768.02;105813;1254;60416;-71
2023/01/31 10:59:23;;;;;;;33.60;25.00;;;;;;;1.91;86.23;98767.48;105578;1259;60237;-72
2023/01/31 11:01:51;;;;;;;30.90;21.60;;;;;;;1.81;86.63;98770.06;105431;1262;72379;-71
2023/01/31 11:04:40;;;;;;;27.20;18.90;;;;;;;1.88;86.72;98772.30;105823;1256;71334;-71
2023/01/31 11:07:09;;;;;;;29.70;21.00;;;;;;;1.90;86.42;98767.00;105852;1254;73571;-71
2023/01/31 11:09:42;;;;;;;28.60;21.40;;;;;;;1.82;86.86;98768.23;105704;1258;59744;-71
2023/01/31 11:12:11;;;;;;;28.20;20.50;;;;;;;1.76;87.03;98772.10;105741;1255;61553;-71
2023/01/31 11:14:39;;;;;;;29.80;21.60;;;;;;;1.69;86.31;98769.42;105310;1253;71830;-71
2023/01/31 11:17:17;;;;;;;28.70;21.60;;;;;;;1.72;86.26;98767.23;105863;1257;69615;-71
2023/01/31 11:19:48;;;;;;;29.20;21.40;;;;;;;1.74;86.41;98771.74;105671;1259;73988;-72
2023/01/31 11:22:28;;;;;;;28.60;21.80;;;;;;;1.68;86.66;98773.81;105726;1259;59650;-69
2023/01/31 11:24:58;;;;;;;28.40;21.00;;;;;;;1.62;86.91;98770.55;105879;1259;61412;-71
2023/01/31 11:27:46;;;;;;;31.90;21.50;;;;;;;1.59;87.03;98770.42;105908;1259;74196;-70
2023/01/31 11:30:30;;;;;;;27.50;21.50;;;;;;;1.70;86.98;98767.59;105660;1256;70901;-70
2023/01/31 11:32:58;;;;;;;31.80;22.80;;;;;;;1.68;87.15;98766.52;105734;1259;71675;-70
2023/01/31 11:35:27;;;;;;;31.40;23.70;;;;;;;1.61;87.29;98766.96;105817;1259;59719;-70
2023/01/31 11:37:59;;;;;;;29.70;21.10;;;;;;;1.56;87.61;98771.40;105971;1257;59583;-70
2023/01/31 11:40:34;;;;;;;34.10;22.80;;;;;;;1.60;87.41;98769.84;105730;1254;71215;-71
2023/01/31 11:43:05;;;;;;;32.00;23.40;;;;;;;1.58;87.85;98769.46;105793;1259;71661;-69